Wetterdaten: Woche 20.12.04 - 26.12.04 (KW52)
Datum Zeit Temperatur Luftfeuchte Luftdruck Niederschlag Wind Richtung Taupunkt Windchill
20.12.2004 00:00 -0.7 C 79 % 1014.8 hPa 0.0 l/m 4.9 km/h (1 Bft) NO -3.9 C -2.1 C
20.12.2004 01:00 -2.1 C 76 % 1015.8 hPa 0.0 l/m 4.3 km/h (1 Bft) NO -5.8 C -3.3 C
20.12.2004 02:00 -2.9 C 75 % 1016.5 hPa 0.0 l/m 7.4 km/h (2 Bft) NO -6.7 C -5.2 C
20.12.2004 03:00 -3.3 C 74 % 1017.0 hPa 0.0 l/m 10.7 km/h (2 Bft) NO -7.4 C -7.4 C
20.12.2004 04:00 -4.0 C 73 % 1017.4 hPa 0.0 l/m 7.5 km/h (2 Bft) NO -8.0 C -6.9 C
20.12.2004 05:00 -4.9 C 76 % 1018.3 hPa 0.0 l/m 1.0 km/h (0 Bft) NO -8.4 C -5.0 C
20.12.2004 06:00 -5.0 C 77 % 1018.5 hPa 0.0 l/m 4.2 km/h (1 Bft) NO -8.4 C -6.6 C
20.12.2004 07:00 -5.3 C 76 % 1019.2 hPa 0.0 l/m 2.8 km/h (1 Bft) NO -8.9 C -6.1 C
20.12.2004 08:00 -5.6 C 74 % 1019.8 hPa 0.0 l/m 0.4 km/h (0 Bft) NO -9.4 C -5.6 C
20.12.2004 09:00 -4.8 C 71 % 1020.0 hPa 0.0 l/m 3.6 km/h (1 Bft) NO -9.2 C -6.0 C
20.12.2004 10:00 -4.1 C 68 % 1020.2 hPa 0.0 l/m 3.3 km/h (1 Bft) NO -9.2 C -5.3 C
20.12.2004 11:00 -3.2 C 64 % 1019.4 hPa 0.0 l/m 3.5 km/h (1 Bft) NO -9.1 C -4.0 C
20.12.2004 12:00 -2.1 C 58 % 1018.9 hPa 0.0 l/m 12.0 km/h (2 Bft) O -9.2 C -5.8 C
20.12.2004 13:00 -1.6 C 52 % 1018.5 hPa 0.0 l/m 15.3 km/h (3 Bft) O-NO -10.1 C -6.3 C
20.12.2004 14:00 -1.5 C 51 % 1017.9 hPa 0.0 l/m 9.6 km/h (2 Bft) O -10.3 C -4.5 C
20.12.2004 15:00 -1.9 C 52 % 1018.9 hPa 0.0 l/m 7.6 km/h (2 Bft) O-SO -10.6 C -4.4 C
20.12.2004 16:00 -3.3 C 55 % 1019.6 hPa 0.0 l/m 5.0 km/h (1 Bft) O-SO -11.0 C -5.1 C
20.12.2004 17:00 -4.7 C 63 % 1020.3 hPa 0.0 l/m 5.9 km/h (2 Bft) O-SO -10.5 C -6.9 C
20.12.2004 18:00 -6.1 C 71 % 1021.4 hPa 0.0 l/m 2.9 km/h (1 Bft) O-SO -10.5 C -7.4 C
20.12.2004 19:00 -6.6 C 78 % 1021.7 hPa 0.0 l/m 5.3 km/h (1 Bft) O-SO -9.9 C -9.2 C
20.12.2004 20:00 -5.2 C 80 % 1021.8 hPa 0.0 l/m 0.5 km/h (0 Bft) O-SO -8.1 C -5.2 C
20.12.2004 21:00 -4.6 C 78 % 1021.7 hPa 0.0 l/m 0.0 km/h (0 Bft) N -7.8 C -4.6 C
20.12.2004 22:00 -4.3 C 76 % 1022.4 hPa 0.0 l/m 0.0 km/h (0 Bft) N -7.9 C -4.3 C
20.12.2004 23:00 -4.5 C 70 % 1022.4 hPa 0.0 l/m 0.0 km/h (0 Bft) N -9.0 C -4.5 C
21.12.2004 00:00 -5.1 C 75 % 1022.7 hPa 0.0 l/m 0.0 km/h (0 Bft) N -8.8 C -5.1 C
21.12.2004 01:00 -4.6 C 75 % 1022.4 hPa 0.0 l/m 0.2 km/h (0 Bft) NW -8.3 C -4.6 C
21.12.2004 02:00 -4.3 C 74 % 1023.0 hPa 0.0 l/m 0.1 km/h (0 Bft) NW -8.2 C -4.3 C
21.12.2004 03:00 -4.2 C 74 % 1023.2 hPa 0.0 l/m 0.0 km/h (0 Bft) N -8.1 C -4.2 C
21.12.2004 04:00 -4.1 C 75 % 1023.4 hPa 0.0 l/m 0.0 km/h (0 Bft) N -7.9 C -4.1 C
21.12.2004 05:00 -4.0 C 75 % 1023.3 hPa 0.0 l/m 0.0 km/h (0 Bft) N -7.8 C -4.0 C
21.12.2004 06:00 -4.1 C 74 % 1023.4 hPa 0.0 l/m 0.0 km/h (0 Bft) N -8.0 C -4.1 C
21.12.2004 07:00 -4.0 C 75 % 1023.3 hPa 0.0 l/m 0.9 km/h (0 Bft) W-NW -7.7 C -4.1 C
21.12.2004 08:00 -3.8 C 76 % 1024.1 hPa 0.0 l/m 0.5 km/h (0 Bft) W -7.4 C -3.9 C
21.12.2004 09:00 -3.4 C 76 % 1024.4 hPa 0.0 l/m 0.2 km/h (0 Bft) W-NW -7.0 C -3.4 C
21.12.2004 10:00 -2.2 C 74 % 1025.1 hPa 0.0 l/m 0.0 km/h (0 Bft) N -6.1 C -2.2 C
21.12.2004 11:00 -1.4 C 71 % 1025.0 hPa 0.0 l/m 1.3 km/h (1 Bft) W -6.0 C -1.8 C
21.12.2004 12:00 -1.2 C 70 % 1024.9 hPa 0.0 l/m 4.8 km/h (1 Bft) W-NW -6.0 C -2.6 C
21.12.2004 13:00 -1.0 C 70 % 1024.8 hPa 0.0 l/m 3.9 km/h (1 Bft) W-NW -5.8 C -2.1 C
21.12.2004 14:00 -1.1 C 71 % 1025.0 hPa 0.0 l/m 2.4 km/h (1 Bft) W-NW -5.7 C -1.9 C
21.12.2004 15:00 -1.5 C 76 % 1025.1 hPa 0.0 l/m 3.2 km/h (1 Bft) W -5.2 C -2.4 C
21.12.2004 16:00 -1.6 C 78 % 1025.7 hPa 0.0 l/m 1.1 km/h (0 Bft) W-NW -5.0 C -1.8 C
21.12.2004 17:00 -1.8 C 80 % 1026.1 hPa 0.0 l/m 5.2 km/h (1 Bft) W-NW -4.9 C -3.5 C
21.12.2004 18:00 -1.9 C 79 % 1026.4 hPa 0.0 l/m 3.9 km/h (1 Bft) W-NW -5.1 C -3.2 C
21.12.2004 19:00 -2.0 C 77 % 1027.2 hPa 0.0 l/m 0.7 km/h (0 Bft) W-NW -5.5 C -2.1 C
21.12.2004 20:00 -2.4 C 74 % 1027.3 hPa 0.0 l/m 4.3 km/h (1 Bft) W-NW -6.4 C -3.7 C
21.12.2004 21:00 -3.9 C 74 % 1027.8 hPa 0.0 l/m 1.7 km/h (1 Bft) W-NW -7.8 C -4.6 C
21.12.2004 22:00 -3.8 C 75 % 1027.9 hPa 0.0 l/m 0.8 km/h (0 Bft) W-NW -7.6 C -4.1 C
21.12.2004 23:00 -4.6 C 75 % 1028.2 hPa 0.0 l/m 0.1 km/h (0 Bft) N -8.5 C -4.6 C
22.12.2004 00:00 -6.5 C 81 % 1028.3 hPa 0.0 l/m 0.0 km/h (0 Bft) N -9.3 C -6.5 C
22.12.2004 01:00 -7.3 C 84 % 1028.4 hPa 0.0 l/m 0.1 km/h (0 Bft) N -9.6 C -7.3 C
22.12.2004 02:00 -7.5 C 84 % 1029.4 hPa 0.0 l/m 0.0 km/h (0 Bft) N -9.8 C -7.5 C
22.12.2004 03:00 -8.7 C 81 % 1029.7 hPa 0.0 l/m 0.0 km/h (0 Bft) N -11.3 C -8.7 C
22.12.2004 04:00 -10.2 C 80 % 1029.8 hPa 0.0 l/m 0.0 km/h (0 Bft) N -13.0 C -10.2 C
22.12.2004 05:00 -11.0 C 79 % 1029.7 hPa 0.0 l/m 0.1 km/h (0 Bft) NO -13.9 C -11.0 C
22.12.2004 06:00 -9.9 C 81 % 1029.5 hPa 0.0 l/m 0.0 km/h (0 Bft) N -12.5 C -9.9 C
22.12.2004 07:00 -8.5 C 85 % 1029.3 hPa 0.0 l/m 1.8 km/h (1 Bft) W-NW -10.6 C -9.2 C
22.12.2004 08:00 -8.8 C 85 % 1029.4 hPa 0.0 l/m 0.0 km/h (0 Bft) N -10.9 C -8.8 C
22.12.2004 09:00 -8.8 C 84 % 1030.2 hPa 0.0 l/m 2.1 km/h (1 Bft) W-NW -11.0 C -9.7 C
22.12.2004 10:00 -7.5 C 85 % 1030.1 hPa 0.0 l/m 1.3 km/h (1 Bft) O-SO -9.6 C -7.6 C
22.12.2004 11:00 -6.4 C 84 % 1029.9 hPa 0.0 l/m 0.6 km/h (0 Bft) N-NO -8.7 C -6.6 C
22.12.2004 12:00 -3.8 C 76 % 1028.2 hPa 0.0 l/m 3.5 km/h (1 Bft) W-NW -7.5 C -5.0 C
22.12.2004 13:00 -2.1 C 55 % 1026.9 hPa 0.0 l/m 8.0 km/h (2 Bft) W-NW -9.8 C -5.0 C
22.12.2004 14:00 -1.7 C 55 % 1026.1 hPa 0.0 l/m 3.6 km/h (1 Bft) W-NW -9.5 C -2.8 C
22.12.2004 15:00 -1.7 C 56 % 1025.8 hPa 0.0 l/m 2.8 km/h (1 Bft) W-NW -9.3 C -2.6 C
22.12.2004 16:00 -2.5 C 61 % 1025.5 hPa 0.0 l/m 0.1 km/h (0 Bft) N -9.0 C -2.5 C
22.12.2004 17:00 -2.6 C 65 % 1025.2 hPa 0.0 l/m 0.0 km/h (0 Bft) N -8.2 C -2.6 C
22.12.2004 18:00 -2.5 C 67 % 1025.2 hPa 0.0 l/m 0.0 km/h (0 Bft) N -7.7 C -2.5 C
22.12.2004 19:00 -2.5 C 71 % 1025.2 hPa 0.0 l/m 0.1 km/h (0 Bft) N -7.0 C -2.5 C
22.12.2004 20:00 -2.2 C 69 % 1025.2 hPa 0.0 l/m 0.0 km/h (0 Bft) N -7.1 C -2.2 C
22.12.2004 21:00 -1.9 C 70 % 1024.9 hPa 0.0 l/m 0.0 km/h (0 Bft) N -6.6 C -1.9 C
22.12.2004 22:00 -1.5 C 77 % 1024.0 hPa 0.0 l/m 0.0 km/h (0 Bft) N -5.0 C -1.5 C
22.12.2004 23:00 -1.7 C 80 % 1024.0 hPa 0.0 l/m 0.0 km/h (0 Bft) N -4.7 C -1.7 C
23.12.2004 00:00 -1.5 C 80 % 1023.3 hPa 0.0 l/m 0.1 km/h (0 Bft) SO -4.6 C -1.5 C
23.12.2004 01:00 -0.4 C 83 % 1022.3 hPa 0.0 l/m 0.5 km/h (0 Bft) SO -2.9 C -0.4 C
23.12.2004 02:00 0.1 C 81 % 1021.7 hPa 0.0 l/m 0.4 km/h (0 Bft) SO -2.7 C 0.1 C
23.12.2004 03:00 -0.4 C 83 % 1021.8 hPa 0.0 l/m 0.0 km/h (0 Bft) N -2.9 C -0.4 C
23.12.2004 04:00 -0.4 C 89 % 1021.8 hPa 0.0 l/m 0.0 km/h (0 Bft) N -2.1 C -0.4 C
23.12.2004 05:00 0.1 C 90 % 1021.5 hPa 0.0 l/m 1.2 km/h (1 Bft) S -1.3 C -0.2 C
23.12.2004 06:00 0.6 C 84 % 1020.6 hPa 0.0 l/m 4.9 km/h (1 Bft) S -1.9 C -0.8 C
23.12.2004 07:00 0.9 C 79 % 1021.5 hPa 0.0 l/m 3.7 km/h (1 Bft) S-SO -2.3 C 0.1 C
23.12.2004 08:00 1.0 C 79 % 1021.5 hPa 0.0 l/m 1.6 km/h (1 Bft) SO -2.2 C 0.8 C
23.12.2004 09:00 1.8 C 76 % 1020.8 hPa 0.0 l/m 5.5 km/h (1 Bft) SO -1.9 C 0.5 C
23.12.2004 10:00 2.5 C 73 % 1020.6 hPa 0.0 l/m 5.5 km/h (1 Bft) SO -1.9 C 1.2 C
23.12.2004 11:00 3.0 C 71 % 1019.7 hPa 0.0 l/m 5.4 km/h (1 Bft) SO -1.6 C 1.9 C
23.12.2004 12:00 4.3 C 68 % 1018.7 hPa 0.0 l/m 3.2 km/h (1 Bft) SO -1.1 C 3.9 C
23.12.2004 13:00 5.1 C 66 % 1017.9 hPa 0.0 l/m 6.4 km/h (2 Bft) SO -0.8 C 3.8 C
23.12.2004 14:00 4.5 C 81 % 1017.9 hPa 0.3 l/m 2.9 km/h (1 Bft) W 1.5 C 3.9 C
23.12.2004 15:00 3.9 C 90 % 1018.0 hPa 0.0 l/m 3.6 km/h (1 Bft) SO 2.4 C 3.1 C
23.12.2004 16:00 3.6 C 94 % 1018.4 hPa 0.3 l/m 6.9 km/h (2 Bft) SO 2.6 C 2.1 C
23.12.2004 17:00 3.5 C 94 % 1019.1 hPa 0.3 l/m 5.6 km/h (1 Bft) SO 2.6 C 2.3 C
23.12.2004 18:00 3.9 C 93 % 1019.1 hPa 0.3 l/m 14.5 km/h (3 Bft) SO 2.8 C 0.6 C
23.12.2004 19:00 4.2 C 93 % 1019.0 hPa 0.0 l/m 10.9 km/h (2 Bft) SO 3.2 C 1.9 C
23.12.2004 20:00 4.6 C 93 % 1019.0 hPa 0.0 l/m 10.6 km/h (2 Bft) SO 3.6 C 2.2 C
23.12.2004 21:00 4.6 C 93 % 1019.0 hPa 0.0 l/m 6.6 km/h (2 Bft) S 3.6 C 3.3 C
23.12.2004 22:00 4.8 C 94 % 1018.9 hPa 0.3 l/m 7.2 km/h (2 Bft) S-SO 3.8 C 3.2 C
23.12.2004 23:00 4.8 C 94 % 1018.9 hPa 0.0 l/m 9.6 km/h (2 Bft) SO 4.0 C 2.7 C
24.12.2004 00:00 5.1 C 92 % 1018.8 hPa 0.3 l/m 9.6 km/h (2 Bft) W-NW 3.9 C 3.1 C
24.12.2004 01:00 4.3 C 93 % 1018.1 hPa 0.0 l/m 6.2 km/h (2 Bft) W-NW 3.2 C 3.3 C
24.12.2004 02:00 5.9 C 81 % 1017.7 hPa 0.0 l/m 26.1 km/h (4 Bft) W-NW 2.9 C 1.6 C
24.12.2004 03:00 5.5 C 78 % 1017.8 hPa 0.0 l/m 16.7 km/h (3 Bft) W-NW 1.9 C 2.7 C
24.12.2004 04:00 4.8 C 85 % 1017.9 hPa 0.0 l/m 5.5 km/h (1 Bft) W 2.5 C 3.7 C
24.12.2004 05:00 4.9 C 87 % 1017.2 hPa 0.0 l/m 7.7 km/h (2 Bft) W 2.8 C 3.2 C
24.12.2004 06:00 5.2 C 86 % 1016.8 hPa 0.0 l/m 9.4 km/h (2 Bft) W 3.0 C 3.2 C
24.12.2004 07:00 5.4 C 84 % 1016.8 hPa 0.0 l/m 10.4 km/h (2 Bft) SW 3.0 C 3.3 C
24.12.2004 08:00 5.5 C 83 % 1016.8 hPa 0.0 l/m 10.0 km/h (2 Bft) S-SO 2.9 C 3.4 C
24.12.2004 09:00 6.2 C 78 % 1016.7 hPa 0.0 l/m 10.3 km/h (2 Bft) S 2.7 C 4.3 C
24.12.2004 10:00 7.3 C 70 % 1016.5 hPa 0.0 l/m 10.8 km/h (2 Bft) SW 2.3 C 5.5 C
24.12.2004 11:00 8.0 C 67 % 1016.0 hPa 0.0 l/m 7.4 km/h (2 Bft) W-SW 2.3 C 6.9 C
24.12.2004 12:00 9.0 C 62 % 1014.9 hPa 0.0 l/m 6.9 km/h (2 Bft) W-SW 2.1 C 8.1 C
24.12.2004 13:00 9.0 C 61 % 1014.2 hPa 0.0 l/m 13.0 km/h (3 Bft) W-SW 1.9 C 7.0 C
24.12.2004 14:00 8.6 C 63 % 1013.6 hPa 0.0 l/m 6.3 km/h (2 Bft) S 1.9 C 7.8 C
24.12.2004 15:00 8.6 C 63 % 1013.7 hPa 0.0 l/m 1.4 km/h (1 Bft) W 2.0 C 8.5 C
24.12.2004 16:00 8.5 C 63 % 1013.8 hPa 0.0 l/m 6.7 km/h (2 Bft) SO 1.9 C 7.5 C
24.12.2004 17:00 7.4 C 67 % 1013.3 hPa 0.0 l/m 8.8 km/h (2 Bft) O-SO 1.8 C 6.0 C
24.12.2004 18:00 6.7 C 73 % 1012.5 hPa 0.0 l/m 1.9 km/h (1 Bft) SO 2.1 C 6.5 C
24.12.2004 19:00 5.9 C 76 % 1011.9 hPa 0.0 l/m 1.9 km/h (1 Bft) SO 2.0 C 5.6 C
24.12.2004 20:00 6.0 C 76 % 1011.2 hPa 0.0 l/m 0.4 km/h (0 Bft) SO 2.1 C 6.0 C
24.12.2004 21:00 5.4 C 79 % 1010.5 hPa 0.0 l/m 0.6 km/h (0 Bft) O 2.1 C 5.4 C
24.12.2004 22:00 5.5 C 79 % 1009.6 hPa 0.0 l/m 3.4 km/h (1 Bft) SO 2.1 C 4.9 C
24.12.2004 23:00 5.1 C 78 % 1008.0 hPa 0.0 l/m 4.0 km/h (1 Bft) SO 1.5 C 4.4 C
25.12.2004 00:00 4.6 C 78 % 1006.2 hPa 0.0 l/m 2.8 km/h (1 Bft) SO 1.1 C 4.3 C
25.12.2004 01:00 4.0 C 79 % 1004.8 hPa 0.0 l/m 3.4 km/h (1 Bft) O-SO 0.8 C 3.4 C
25.12.2004 02:00 2.7 C 87 % 1004.1 hPa 0.0 l/m 0.2 km/h (0 Bft) N 0.7 C 2.7 C
25.12.2004 03:00 2.4 C 90 % 1003.2 hPa 0.0 l/m 0.6 km/h (0 Bft) O-SO 0.9 C 2.3 C
25.12.2004 04:00 1.4 C 93 % 1002.8 hPa 0.0 l/m 0.0 km/h (0 Bft) N 0.4 C 1.4 C
25.12.2004 05:00 1.2 C 96 % 1003.3 hPa 0.0 l/m 3.2 km/h (1 Bft) O-SO 0.6 C 0.5 C
25.12.2004 06:00 3.4 C 94 % 1003.1 hPa 0.0 l/m 14.1 km/h (3 Bft) W-NW 2.5 C 0.5 C
25.12.2004 07:00 2.8 C 88 % 1003.3 hPa 0.0 l/m 7.7 km/h (2 Bft) SO 1.0 C 0.9 C
25.12.2004 08:00 2.4 C 89 % 1003.7 hPa 0.0 l/m 6.8 km/h (2 Bft) SO 0.7 C 0.7 C
25.12.2004 09:00 3.6 C 78 % 1003.5 hPa 0.0 l/m 9.8 km/h (2 Bft) SO 0.1 C 1.4 C
25.12.2004 10:00 5.4 C 68 % 1003.3 hPa 0.0 l/m 7.5 km/h (2 Bft) SO -0.1 C 3.9 C
25.12.2004 11:00 7.3 C 61 % 1002.7 hPa 0.0 l/m 5.3 km/h (1 Bft) S 0.3 C 6.6 C
25.12.2004 12:00 8.8 C 56 % 1001.7 hPa 0.0 l/m 12.3 km/h (3 Bft) W-NW 0.4 C 7.0 C
25.12.2004 13:00 8.3 C 64 % 1001.7 hPa 0.0 l/m 18.5 km/h (3 Bft) W-NW 1.8 C 5.6 C
25.12.2004 14:00 7.2 C 69 % 1000.9 hPa 0.0 l/m 19.6 km/h (3 Bft) W-NW 1.9 C 4.1 C
25.12.2004 15:00 5.8 C 74 % 1001.1 hPa 0.0 l/m 11.8 km/h (2 Bft) W-NW 1.5 C 3.7 C
25.12.2004 16:00 4.4 C 84 % 1001.8 hPa 0.3 l/m 3.0 km/h (1 Bft) NW 1.9 C 3.8 C
25.12.2004 17:00 3.5 C 90 % 1002.3 hPa 0.0 l/m 14.7 km/h (3 Bft) W-NW 2.0 C 0.2 C
25.12.2004 18:00 2.7 C 91 % 1002.6 hPa 0.3 l/m 14.9 km/h (3 Bft) W-NW 1.4 C -0.8 C
25.12.2004 19:00 2.2 C 93 % 1002.7 hPa 0.0 l/m 10.2 km/h (2 Bft) NW 1.2 C -0.3 C
25.12.2004 20:00 2.0 C 94 % 1003.7 hPa 0.0 l/m 2.3 km/h (1 Bft) W 1.1 C 1.5 C
25.12.2004 21:00 1.8 C 95 % 1003.8 hPa 0.3 l/m 0.8 km/h (0 Bft) O-SO 1.1 C 1.8 C
25.12.2004 22:00 1.5 C 95 % 1003.8 hPa 0.6 l/m 0.7 km/h (0 Bft) O-SO 0.8 C 1.3 C
25.12.2004 23:00 1.3 C 96 % 1003.8 hPa 0.3 l/m 0.0 km/h (0 Bft) N 0.7 C 1.3 C
26.12.2004 00:00 0.8 C 96 % 1003.0 hPa 0.6 l/m 0.0 km/h (0 Bft) N 0.2 C 0.8 C
26.12.2004 01:00 0.5 C 96 % 1002.9 hPa 0.3 l/m 0.0 km/h (0 Bft) N -0.1 C 0.5 C
26.12.2004 02:00 0.4 C 96 % 1002.9 hPa 0.0 l/m 0.0 km/h (0 Bft) N -0.2 C 0.4 C
26.12.2004 03:00 0.2 C 97 % 1002.2 hPa 0.6 l/m 0.0 km/h (0 Bft) N -0.2 C 0.2 C
26.12.2004 04:00 0.0 C 98 % 1001.9 hPa 0.6 l/m 0.0 km/h (0 Bft) N -0.3 C 0.0 C
26.12.2004 05:00 0.0 C 99 % 1001.3 hPa 0.0 l/m 0.0 km/h (0 Bft) N -0.0 C 0.0 C
26.12.2004 06:00 0.2 C 99 % 1000.9 hPa 0.3 l/m 0.0 km/h (0 Bft) N 0.1 C 0.2 C
26.12.2004 07:00 0.2 C 100 % 1000.9 hPa 0.0 l/m 0.0 km/h (0 Bft) N 0.2 C 0.2 C
26.12.2004 08:00 0.4 C 100 % 1000.8 hPa 0.0 l/m 0.0 km/h (0 Bft) N 0.4 C 0.4 C
26.12.2004 09:00 0.5 C 100 % 1001.4 hPa 0.0 l/m 0.0 km/h (0 Bft) N 0.5 C 0.5 C
26.12.2004 10:00 0.9 C 99 % 1001.8 hPa 0.0 l/m 0.0 km/h (0 Bft) N 0.8 C 0.9 C
26.12.2004 11:00 1.1 C 99 % 1001.8 hPa 0.0 l/m 0.0 km/h (0 Bft) N 1.0 C 1.1 C
26.12.2004 12:00 1.4 C 99 % 1001.7 hPa 0.0 l/m 0.0 km/h (0 Bft) N 1.2 C 1.4 C
26.12.2004 13:00 1.3 C 99 % 1001.4 hPa 0.0 l/m 0.0 km/h (0 Bft) N 1.2 C 1.3 C
26.12.2004 14:00 1.3 C 99 % 1001.8 hPa 0.0 l/m 0.1 km/h (0 Bft) N 1.2 C 1.3 C
26.12.2004 15:00 1.3 C 99 % 1002.1 hPa 0.0 l/m 0.2 km/h (0 Bft) W-NW 1.2 C 1.3 C
26.12.2004 16:00 0.9 C 100 % 1003.1 hPa 0.6 l/m 0.0 km/h (0 Bft) N 0.9 C 0.9 C
26.12.2004 17:00 0.2 C 98 % 1004.0 hPa 1.2 l/m 0.0 km/h (0 Bft) N -0.1 C 0.2 C
26.12.2004 18:00 0.1 C 99 % 1005.0 hPa 0.3 l/m 0.0 km/h (0 Bft) N -0.1 C 0.1 C
26.12.2004 19:00 0.1 C 99 % 1005.7 hPa 0.3 l/m 0.0 km/h (0 Bft) N -0.1 C 0.1 C
26.12.2004 20:00 0.0 C 100 % 1006.7 hPa 0.3 l/m 0.0 km/h (0 Bft) N -0.0 C 0.0 C
26.12.2004 21:00 -0.1 C 99 % 1007.2 hPa 0.0 l/m 0.0 km/h (0 Bft) N -0.2 C -0.1 C
26.12.2004 22:00 0.2 C 99 % 1008.1 hPa 0.3 l/m 0.0 km/h (0 Bft) N 0.0 C 0.2 C
26.12.2004 23:00 0.4 C 100 % 1008.9 hPa 0.0 l/m 0.0 km/h (0 Bft) N 0.4 C 0.4 C
Min-Datum _ 22.12.04 20.12.04 26.12.04 - 20.12.04 - 22.12.04 22.12.04
_ Min-Zeit 05:30 13:45 13:04 - 05:39 - 05:30 07:54
Minimum _ -11.3 C 49 % 1000.7 hPa - 0.0 km/h (0 Bft) - -14.2 C -13.0 C
Max-Datum _ 25.12.04 26.12.04 22.12.04 26.12.04 24.12.04 - 24.12.04 25.12.04
_ Max-Zeit 12:48 05:16 04:45 16:00 02:48 - 00:27 12:48
Maximum _ 9.5 C 100 % 1030.6 hPa 1.2 l/m 40.5 km/h
W-NW (6 Bft)
- 4.4 C 9.5 C
Durchschnitt _ 0.1 C 80 % 1016.1 hPa #9.1 l/m 3.9 km/h (1 Bft) W-NW -3.0 C -0.7 C

Durchschnitt Minimum Temp.-0.3 C
Durchschnitt Maximum Temp.0.6 C
© Kaiko 2004